sensor_id;sensor_type;location;lat;lon;timestamp;temperature;humidity
7842;DHT22;3966;51.052;13.820;2022-07-18T00:02:11;15.50;99.90
7842;DHT22;3966;51.052;13.820;2022-07-18T00:04:37;15.40;99.90
7842;DHT22;3966;51.052;13.820;2022-07-18T00:07:02;15.40;99.90
7842;DHT22;3966;51.052;13.820;2022-07-18T00:09:28;15.40;99.90
7842;DHT22;3966;51.052;13.820;2022-07-18T00:11:54;15.40;99.90
7842;DHT22;3966;51.052;13.820;2022-07-18T00:14:20;15.40;99.90
7842;DHT22;3966;51.052;13.820;2022-07-18T00:16:46;15.30;99.90
7842;DHT22;3966;51.052;13.820;2022-07-18T00:19:12;15.30;99.90
7842;DHT22;3966;51.052;13.820;2022-07-18T00:21:37;15.30;99.90
7842;DHT22;3966;51.052;13.820;2022-07-18T00:24:03;15.30;99.90
7842;DHT22;3966;51.052;13.820;2022-07-18T00:26:28;15.20;99.90
7842;DHT22;3966;51.052;13.820;2022-07-18T00:28:54;15.20;99.90
7842;DHT22;3966;51.052;13.820;2022-07-18T00:31:19;15.10;99.90
7842;DHT22;3966;51.052;13.820;2022-07-18T00:33:45;15.00;99.90
7842;DHT22;3966;51.052;13.820;2022-07-18T00:36:11;15.00;99.90
7842;DHT22;3966;51.052;13.820;2022-07-18T00:38:36;14.90;99.90
7842;DHT22;3966;51.052;13.820;2022-07-18T00:41:02;14.90;99.90
7842;DHT22;3966;51.052;13.820;2022-07-18T00:43:28;14.80;99.90
7842;DHT22;3966;51.052;13.820;2022-07-18T00:45:54;14.80;99.90
7842;DHT22;3966;51.052;13.820;2022-07-18T00:48:19;14.90;99.90
7842;DHT22;3966;51.052;13.820;2022-07-18T00:50:45;14.90;99.90
7842;DHT22;3966;51.052;13.820;2022-07-18T00:53:11;14.90;99.90
7842;DHT22;3966;51.052;13.820;2022-07-18T00:55:38;14.90;99.90
7842;DHT22;3966;51.052;13.820;2022-07-18T00:58:04;14.70;99.90
7842;DHT22;3966;51.052;13.820;2022-07-18T01:00:30;14.70;99.90
7842;DHT22;3966;51.052;13.820;2022-07-18T01:03:14;14.70;99.90
7842;DHT22;3966;51.052;13.820;2022-07-18T01:05:40;14.70;99.90
7842;DHT22;3966;51.052;13.820;2022-07-18T01:08:06;14.70;99.90
7842;DHT22;3966;51.052;13.820;2022-07-18T01:10:31;14.60;99.90
7842;DHT22;3966;51.052;13.820;2022-07-18T01:12:57;14.50;99.90
7842;DHT22;3966;51.052;13.820;2022-07-18T01:15:23;14.50;99.90
7842;DHT22;3966;51.052;13.820;2022-07-18T01:17:48;14.50;99.90
7842;DHT22;3966;51.052;13.820;2022-07-18T01:20:15;14.40;99.90
7842;DHT22;3966;51.052;13.820;2022-07-18T01:22:41;14.30;99.90
7842;DHT22;3966;51.052;13.820;2022-07-18T01:25:08;14.30;99.90
7842;DHT22;3966;51.052;13.820;2022-07-18T01:27:34;14.30;99.90
7842;DHT22;3966;51.052;13.820;2022-07-18T01:29:59;14.30;99.90
7842;DHT22;3966;51.052;13.820;2022-07-18T01:32:26;14.20;99.90
7842;DHT22;3966;51.052;13.820;2022-07-18T01:34:52;14.10;99.90
7842;DHT22;3966;51.052;13.820;2022-07-18T01:37:18;14.10;99.90
7842;DHT22;3966;51.052;13.820;2022-07-18T01:39:44;14.10;99.90
7842;DHT22;3966;51.052;13.820;2022-07-18T01:42:11;14.10;99.90
7842;DHT22;3966;51.052;13.820;2022-07-18T01:44:38;14.10;99.90
7842;DHT22;3966;51.052;13.820;2022-07-18T01:47:06;14.10;99.90
7842;DHT22;3966;51.052;13.820;2022-07-18T01:49:32;14.10;99.90
7842;DHT22;3966;51.052;13.820;2022-07-18T01:51:58;14.00;99.90
7842;DHT22;3966;51.052;13.820;2022-07-18T01:54:27;14.00;99.90
7842;DHT22;3966;51.052;13.820;2022-07-18T01:56:53;14.00;99.90
7842;DHT22;3966;51.052;13.820;2022-07-18T01:59:19;14.00;99.90
7842;DHT22;3966;51.052;13.820;2022-07-18T02:01:45;13.90;99.90
7842;DHT22;3966;51.052;13.820;2022-07-18T02:04:11;13.90;99.90
7842;DHT22;3966;51.052;13.820;2022-07-18T02:06:37;13.80;99.90
7842;DHT22;3966;51.052;13.820;2022-07-18T02:09:03;13.80;99.90
7842;DHT22;3966;51.052;13.820;2022-07-18T02:11:29;13.80;99.90
7842;DHT22;3966;51.052;13.820;2022-07-18T02:13:55;13.70;99.90
7842;DHT22;3966;51.052;13.820;2022-07-18T02:16:20;13.80;99.90
7842;DHT22;3966;51.052;13.820;2022-07-18T02:18:46;13.70;99.90
7842;DHT22;3966;51.052;13.820;2022-07-18T02:21:11;13.70;99.90
7842;DHT22;3966;51.052;13.820;2022-07-18T02:23:39;13.60;99.90
7842;DHT22;3966;51.052;13.820;2022-07-18T02:26:06;13.60;99.90
7842;DHT22;3966;51.052;13.820;2022-07-18T02:28:32;13.70;99.90
7842;DHT22;3966;51.052;13.820;2022-07-18T02:30:57;13.60;99.90
7842;DHT22;3966;51.052;13.820;2022-07-18T02:33:23;13.70;99.90
7842;DHT22;3966;51.052;13.820;2022-07-18T02:35:48;13.60;99.90
7842;DHT22;3966;51.052;13.820;2022-07-18T02:38:14;13.50;99.90
7842;DHT22;3966;51.052;13.820;2022-07-18T02:40:39;13.40;99.90
7842;DHT22;3966;51.052;13.820;2022-07-18T02:43:05;13.50;99.90
7842;DHT22;3966;51.052;13.820;2022-07-18T02:45:31;13.40;99.90
7842;DHT22;3966;51.052;13.820;2022-07-18T02:47:56;13.40;99.90
7842;DHT22;3966;51.052;13.820;2022-07-18T02:50:22;13.40;99.90
7842;DHT22;3966;51.052;13.820;2022-07-18T02:52:48;13.30;99.90
7842;DHT22;3966;51.052;13.820;2022-07-18T02:55:14;13.30;99.90
7842;DHT22;3966;51.052;13.820;2022-07-18T02:57:40;13.30;99.90
7842;DHT22;3966;51.052;13.820;2022-07-18T03:00:08;13.30;99.90
7842;DHT22;3966;51.052;13.820;2022-07-18T03:02:34;13.30;99.90
7842;DHT22;3966;51.052;13.820;2022-07-18T03:05:00;13.30;99.90
7842;DHT22;3966;51.052;13.820;2022-07-18T03:07:26;13.20;99.90
7842;DHT22;3966;51.052;13.820;2022-07-18T03:09:51;13.20;99.90
7842;DHT22;3966;51.052;13.820;2022-07-18T03:12:17;13.20;99.90
7842;DHT22;3966;51.052;13.820;2022-07-18T03:14:43;13.20;99.90
7842;DHT22;3966;51.052;13.820;2022-07-18T03:17:09;13.20;99.90
7842;DHT22;3966;51.052;13.820;2022-07-18T03:19:34;13.20;99.90
7842;DHT22;3966;51.052;13.820;2022-07-18T03:22:01;13.10;99.90
7842;DHT22;3966;51.052;13.820;2022-07-18T03:24:26;13.10;99.90
7842;DHT22;3966;51.052;13.820;2022-07-18T03:26:52;13.10;99.90
7842;DHT22;3966;51.052;13.820;2022-07-18T03:29:18;13.10;99.90
7842;DHT22;3966;51.052;13.820;2022-07-18T03:31:43;13.10;99.90
7842;DHT22;3966;51.052;13.820;2022-07-18T03:34:08;13.10;99.90
7842;DHT22;3966;51.052;13.820;2022-07-18T03:36:34;13.10;99.90
7842;DHT22;3966;51.052;13.820;2022-07-18T03:39:00;13.00;99.90
7842;DHT22;3966;51.052;13.820;2022-07-18T03:41:25;13.00;99.90
7842;DHT22;3966;51.052;13.820;2022-07-18T03:43:51;13.00;99.90
7842;DHT22;3966;51.052;13.820;2022-07-18T03:46:16;12.90;99.90
7842;DHT22;3966;51.052;13.820;2022-07-18T03:48:42;12.90;99.90
7842;DHT22;3966;51.052;13.820;2022-07-18T03:51:07;12.90;99.90
7842;DHT22;3966;51.052;13.820;2022-07-18T03:53:33;12.90;99.90
7842;DHT22;3966;51.052;13.820;2022-07-18T03:55:59;12.80;99.90
7842;DHT22;3966;51.052;13.820;2022-07-18T03:58:25;12.80;99.90
7842;DHT22;3966;51.052;13.820;2022-07-18T04:00:50;12.90;99.90
7842;DHT22;3966;51.052;13.820;2022-07-18T04:03:16;12.90;99.90
7842;DHT22;3966;51.052;13.820;2022-07-18T04:05:43;12.80;99.90
7842;DHT22;3966;51.052;13.820;2022-07-18T04:08:08;12.90;99.90
7842;DHT22;3966;51.052;13.820;2022-07-18T04:10:34;12.90;99.90
7842;DHT22;3966;51.052;13.820;2022-07-18T04:12:59;12.90;99.90
7842;DHT22;3966;51.052;13.820;2022-07-18T04:15:25;13.00;99.90
7842;DHT22;3966;51.052;13.820;2022-07-18T04:17:51;13.00;99.90
7842;DHT22;3966;51.052;13.820;2022-07-18T04:20:19;13.00;99.90
7842;DHT22;3966;51.052;13.820;2022-07-18T04:22:56;12.90;99.90
7842;DHT22;3966;51.052;13.820;2022-07-18T04:25:24;13.00;99.90
7842;DHT22;3966;51.052;13.820;2022-07-18T04:27:50;13.00;99.90
7842;DHT22;3966;51.052;13.820;2022-07-18T04:30:17;13.00;99.90
7842;DHT22;3966;51.052;13.820;2022-07-18T04:32:43;12.90;99.90
7842;DHT22;3966;51.052;13.820;2022-07-18T04:35:09;12.90;99.90
7842;DHT22;3966;51.052;13.820;2022-07-18T04:37:36;13.00;99.90
7842;DHT22;3966;51.052;13.820;2022-07-18T04:40:03;13.00;99.90
7842;DHT22;3966;51.052;13.820;2022-07-18T04:42:28;13.00;99.90
7842;DHT22;3966;51.052;13.820;2022-07-18T04:44:56;13.00;99.90
7842;DHT22;3966;51.052;13.820;2022-07-18T04:47:22;12.90;99.90
7842;DHT22;3966;51.052;13.820;2022-07-18T04:49:47;13.00;99.90
7842;DHT22;3966;51.052;13.820;2022-07-18T04:52:13;12.90;99.90
7842;DHT22;3966;51.052;13.820;2022-07-18T04:54:38;12.90;99.90
7842;DHT22;3966;51.052;13.820;2022-07-18T04:57:03;12.90;99.90
7842;DHT22;3966;51.052;13.820;2022-07-18T04:59:29;12.90;99.90
7842;DHT22;3966;51.052;13.820;2022-07-18T05:01:54;13.00;99.90
7842;DHT22;3966;51.052;13.820;2022-07-18T05:04:20;13.10;99.90
7842;DHT22;3966;51.052;13.820;2022-07-18T05:06:45;13.10;99.90
7842;DHT22;3966;51.052;13.820;2022-07-18T05:09:11;13.10;99.90
7842;DHT22;3966;51.052;13.820;2022-07-18T05:11:36;13.20;99.90
7842;DHT22;3966;51.052;13.820;2022-07-18T05:14:02;13.20;99.90
7842;DHT22;3966;51.052;13.820;2022-07-18T05:16:27;13.20;99.90
7842;DHT22;3966;51.052;13.820;2022-07-18T05:18:53;13.20;99.90
7842;DHT22;3966;51.052;13.820;2022-07-18T05:21:18;13.20;99.90
7842;DHT22;3966;51.052;13.820;2022-07-18T05:23:44;13.30;99.90
7842;DHT22;3966;51.052;13.820;2022-07-18T05:26:11;13.30;99.90
7842;DHT22;3966;51.052;13.820;2022-07-18T05:28:36;13.40;99.90
7842;DHT22;3966;51.052;13.820;2022-07-18T05:31:02;13.30;99.90
7842;DHT22;3966;51.052;13.820;2022-07-18T05:33:28;13.30;99.90
7842;DHT22;3966;51.052;13.820;2022-07-18T05:35:53;13.40;99.90
7842;DHT22;3966;51.052;13.820;2022-07-18T05:38:18;13.40;99.90
7842;DHT22;3966;51.052;13.820;2022-07-18T05:40:44;13.50;99.90
7842;DHT22;3966;51.052;13.820;2022-07-18T05:43:10;13.50;99.90
7842;DHT22;3966;51.052;13.820;2022-07-18T05:45:35;13.60;99.90
7842;DHT22;3966;51.052;13.820;2022-07-18T05:48:01;13.70;99.90
7842;DHT22;3966;51.052;13.820;2022-07-18T05:50:27;13.80;99.90
7842;DHT22;3966;51.052;13.820;2022-07-18T05:52:52;13.90;99.90
7842;DHT22;3966;51.052;13.820;2022-07-18T05:55:18;13.90;99.90
7842;DHT22;3966;51.052;13.820;2022-07-18T05:57:44;14.10;99.90
7842;DHT22;3966;51.052;13.820;2022-07-18T06:00:16;14.10;99.90
7842;DHT22;3966;51.052;13.820;2022-07-18T06:02:42;14.20;99.90
7842;DHT22;3966;51.052;13.820;2022-07-18T06:05:08;14.30;99.90
7842;DHT22;3966;51.052;13.820;2022-07-18T06:07:35;14.50;99.90
7842;DHT22;3966;51.052;13.820;2022-07-18T06:10:00;14.70;99.90
7842;DHT22;3966;51.052;13.820;2022-07-18T06:12:28;14.80;99.90
7842;DHT22;3966;51.052;13.820;2022-07-18T06:14:55;15.00;99.90
7842;DHT22;3966;51.052;13.820;2022-07-18T06:17:20;15.20;99.90
7842;DHT22;3966;51.052;13.820;2022-07-18T06:19:45;15.30;99.90
7842;DHT22;3966;51.052;13.820;2022-07-18T06:22:11;15.40;99.90
7842;DHT22;3966;51.052;13.820;2022-07-18T06:24:36;15.60;99.90
7842;DHT22;3966;51.052;13.820;2022-07-18T06:27:02;15.80;99.90
7842;DHT22;3966;51.052;13.820;2022-07-18T06:29:28;15.90;99.90
7842;DHT22;3966;51.052;13.820;2022-07-18T06:31:53;16.00;99.90
7842;DHT22;3966;51.052;13.820;2022-07-18T06:34:19;16.20;99.90
7842;DHT22;3966;51.052;13.820;2022-07-18T06:36:44;16.30;99.90
7842;DHT22;3966;51.052;13.820;2022-07-18T06:39:10;16.40;99.90
7842;DHT22;3966;51.052;13.820;2022-07-18T06:41:39;16.60;99.90
7842;DHT22;3966;51.052;13.820;2022-07-18T06:44:05;16.60;99.90
7842;DHT22;3966;51.052;13.820;2022-07-18T06:46:31;16.70;99.90
7842;DHT22;3966;51.052;13.820;2022-07-18T06:48:56;16.90;99.90
7842;DHT22;3966;51.052;13.820;2022-07-18T06:51:22;17.00;99.90
7842;DHT22;3966;51.052;13.820;2022-07-18T06:53:47;17.10;99.90
7842;DHT22;3966;51.052;13.820;2022-07-18T06:56:13;17.10;99.90
7842;DHT22;3966;51.052;13.820;2022-07-18T06:58:38;17.20;99.90
7842;DHT22;3966;51.052;13.820;2022-07-18T07:01:04;17.30;99.90
7842;DHT22;3966;51.052;13.820;2022-07-18T07:03:32;17.40;99.90
7842;DHT22;3966;51.052;13.820;2022-07-18T07:05:57;17.50;99.90
7842;DHT22;3966;51.052;13.820;2022-07-18T07:08:23;17.60;99.90
7842;DHT22;3966;51.052;13.820;2022-07-18T07:10:48;17.70;99.90
7842;DHT22;3966;51.052;13.820;2022-07-18T07:13:14;17.80;99.90
7842;DHT22;3966;51.052;13.820;2022-07-18T07:15:39;18.00;99.90
7842;DHT22;3966;51.052;13.820;2022-07-18T07:18:06;18.10;99.90
7842;DHT22;3966;51.052;13.820;2022-07-18T07:20:31;18.20;99.90
7842;DHT22;3966;51.052;13.820;2022-07-18T07:22:57;18.30;99.90
7842;DHT22;3966;51.052;13.820;2022-07-18T07:25:24;18.50;99.90
7842;DHT22;3966;51.052;13.820;2022-07-18T07:27:51;18.60;99.90
7842;DHT22;3966;51.052;13.820;2022-07-18T07:30:16;18.80;99.90
7842;DHT22;3966;51.052;13.820;2022-07-18T07:32:43;18.90;99.90
7842;DHT22;3966;51.052;13.820;2022-07-18T07:35:11;19.10;99.90
7842;DHT22;3966;51.052;13.820;2022-07-18T07:37:43;19.20;99.90
7842;DHT22;3966;51.052;13.820;2022-07-18T07:40:09;19.50;99.90
7842;DHT22;3966;51.052;13.820;2022-07-18T07:42:35;19.50;99.90
7842;DHT22;3966;51.052;13.820;2022-07-18T07:45:00;19.70;99.90
7842;DHT22;3966;51.052;13.820;2022-07-18T07:47:26;19.80;99.90
7842;DHT22;3966;51.052;13.820;2022-07-18T07:49:54;19.80;99.90
7842;DHT22;3966;51.052;13.820;2022-07-18T07:52:19;19.90;99.90
7842;DHT22;3966;51.052;13.820;2022-07-18T07:54:45;20.10;99.70
7842;DHT22;3966;51.052;13.820;2022-07-18T07:57:11;20.20;97.50
7842;DHT22;3966;51.052;13.820;2022-07-18T07:59:37;20.30;96.80
7842;DHT22;3966;51.052;13.820;2022-07-18T08:02:03;20.60;95.20
7842;DHT22;3966;51.052;13.820;2022-07-18T08:04:28;20.70;95.50
7842;DHT22;3966;51.052;13.820;2022-07-18T08:06:54;20.80;95.00
7842;DHT22;3966;51.052;13.820;2022-07-18T08:09:19;20.80;94.80
7842;DHT22;3966;51.052;13.820;2022-07-18T08:11:45;21.00;96.00
7842;DHT22;3966;51.052;13.820;2022-07-18T08:14:10;21.10;94.60
7842;DHT22;3966;51.052;13.820;2022-07-18T08:16:36;21.20;94.10
7842;DHT22;3966;51.052;13.820;2022-07-18T08:19:04;21.40;93.10
7842;DHT22;3966;51.052;13.820;2022-07-18T08:21:29;21.50;92.20
7842;DHT22;3966;51.052;13.820;2022-07-18T08:23:55;21.60;92.50
7842;DHT22;3966;51.052;13.820;2022-07-18T08:26:20;21.80;91.80
7842;DHT22;3966;51.052;13.820;2022-07-18T08:28:47;21.90;89.40
7842;DHT22;3966;51.052;13.820;2022-07-18T08:31:13;21.90;90.10
7842;DHT22;3966;51.052;13.820;2022-07-18T08:33:39;22.00;89.10
7842;DHT22;3966;51.052;13.820;2022-07-18T08:36:05;22.10;88.80
7842;DHT22;3966;51.052;13.820;2022-07-18T08:38:30;22.20;87.40
7842;DHT22;3966;51.052;13.820;2022-07-18T08:40:56;22.30;85.90
7842;DHT22;3966;51.052;13.820;2022-07-18T08:43:24;22.40;87.90
7842;DHT22;3966;51.052;13.820;2022-07-18T08:45:51;22.60;84.90
7842;DHT22;3966;51.052;13.820;2022-07-18T08:48:19;22.70;85.70
7842;DHT22;3966;51.052;13.820;2022-07-18T08:50:46;22.80;84.50
7842;DHT22;3966;51.052;13.820;2022-07-18T08:53:13;22.80;84.70
7842;DHT22;3966;51.052;13.820;2022-07-18T08:55:39;22.80;83.40
7842;DHT22;3966;51.052;13.820;2022-07-18T08:58:04;22.80;82.90
7842;DHT22;3966;51.052;13.820;2022-07-18T09:00:30;23.00;83.70
7842;DHT22;3966;51.052;13.820;2022-07-18T09:02:59;23.10;79.30
7842;DHT22;3966;51.052;13.820;2022-07-18T09:05:24;23.30;78.90
7842;DHT22;3966;51.052;13.820;2022-07-18T09:07:50;23.30;78.30
7842;DHT22;3966;51.052;13.820;2022-07-18T09:10:15;23.50;77.60
7842;DHT22;3966;51.052;13.820;2022-07-18T09:12:56;23.60;76.10
7842;DHT22;3966;51.052;13.820;2022-07-18T09:15:22;23.60;75.30
7842;DHT22;3966;51.052;13.820;2022-07-18T09:17:49;23.80;74.40
7842;DHT22;3966;51.052;13.820;2022-07-18T09:20:15;23.90;74.90
7842;DHT22;3966;51.052;13.820;2022-07-18T09:22:43;24.00;74.70
7842;DHT22;3966;51.052;13.820;2022-07-18T09:25:14;24.00;72.60
7842;DHT22;3966;51.052;13.820;2022-07-18T09:27:45;24.10;73.50
7842;DHT22;3966;51.052;13.820;2022-07-18T09:30:28;24.20;72.90
7842;DHT22;3966;51.052;13.820;2022-07-18T09:33:08;24.20;71.60
7842;DHT22;3966;51.052;13.820;2022-07-18T09:35:36;24.40;72.70
7842;DHT22;3966;51.052;13.820;2022-07-18T09:38:07;24.60;71.90
7842;DHT22;3966;51.052;13.820;2022-07-18T09:40:44;24.50;70.10
7842;DHT22;3966;51.052;13.820;2022-07-18T09:43:15;24.70;69.10
7842;DHT22;3966;51.052;13.820;2022-07-18T09:45:42;24.80;69.70
7842;DHT22;3966;51.052;13.820;2022-07-18T09:48:11;24.70;68.60
7842;DHT22;3966;51.052;13.820;2022-07-18T09:50:39;24.80;68.90
7842;DHT22;3966;51.052;13.820;2022-07-18T09:53:16;24.90;69.10
7842;DHT22;3966;51.052;13.820;2022-07-18T09:55:59;25.10;67.40
7842;DHT22;3966;51.052;13.820;2022-07-18T09:58:30;25.10;67.70
7842;DHT22;3966;51.052;13.820;2022-07-18T10:00:59;25.00;68.10
7842;DHT22;3966;51.052;13.820;2022-07-18T10:03:25;25.30;66.80
7842;DHT22;3966;51.052;13.820;2022-07-18T10:05:52;25.40;66.50
7842;DHT22;3966;51.052;13.820;2022-07-18T10:08:24;25.40;65.50
7842;DHT22;3966;51.052;13.820;2022-07-18T10:10:51;25.40;65.70
7842;DHT22;3966;51.052;13.820;2022-07-18T10:13:18;25.40;66.40
7842;DHT22;3966;51.052;13.820;2022-07-18T10:15:46;25.50;65.80
7842;DHT22;3966;51.052;13.820;2022-07-18T10:18:17;25.70;65.50
7842;DHT22;3966;51.052;13.820;2022-07-18T10:23:26;25.70;61.90
7842;DHT22;3966;51.052;13.820;2022-07-18T10:26:14;25.60;62.90
7842;DHT22;3966;51.052;13.820;2022-07-18T10:31:23;25.60;61.70
7842;DHT22;3966;51.052;13.820;2022-07-18T10:33:49;25.70;63.50
7842;DHT22;3966;51.052;13.820;2022-07-18T10:36:22;25.60;61.70
7842;DHT22;3966;51.052;13.820;2022-07-18T10:57:38;26.50;61.30
7842;DHT22;3966;51.052;13.820;2022-07-18T11:18:22;26.80;59.50
7842;DHT22;3966;51.052;13.820;2022-07-18T11:20:48;26.80;59.70
7842;DHT22;3966;51.052;13.820;2022-07-18T11:23:21;27.10;60.30
7842;DHT22;3966;51.052;13.820;2022-07-18T11:25:49;27.20;59.70
7842;DHT22;3966;51.052;13.820;2022-07-18T11:28:15;27.40;59.90
7842;DHT22;3966;51.052;13.820;2022-07-18T11:30:41;27.60;59.10
7842;DHT22;3966;51.052;13.820;2022-07-18T11:33:24;27.70;58.80
7842;DHT22;3966;51.052;13.820;2022-07-18T11:35:50;27.70;58.60
7842;DHT22;3966;51.052;13.820;2022-07-18T11:38:17;27.30;59.80
7842;DHT22;3966;51.052;13.820;2022-07-18T11:40:50;27.60;59.00
7842;DHT22;3966;51.052;13.820;2022-07-18T11:43:23;27.70;58.80
7842;DHT22;3966;51.052;13.820;2022-07-18T11:45:59;28.00;59.10
7842;DHT22;3966;51.052;13.820;2022-07-18T11:48:25;28.00;57.30
7842;DHT22;3966;51.052;13.820;2022-07-18T11:50:51;27.90;58.20
7842;DHT22;3966;51.052;13.820;2022-07-18T11:53:16;28.10;59.10
7842;DHT22;3966;51.052;13.820;2022-07-18T11:55:42;28.20;56.50
7842;DHT22;3966;51.052;13.820;2022-07-18T11:58:13;28.30;57.30
7842;DHT22;3966;51.052;13.820;2022-07-18T12:00:39;28.40;56.70
7842;DHT22;3966;51.052;13.820;2022-07-18T12:03:18;28.40;57.20
7842;DHT22;3966;51.052;13.820;2022-07-18T12:05:50;28.30;56.30
7842;DHT22;3966;51.052;13.820;2022-07-18T12:08:47;28.20;56.90
7842;DHT22;3966;51.052;13.820;2022-07-18T12:11:18;28.60;56.50
7842;DHT22;3966;51.052;13.820;2022-07-18T12:16:35;28.20;57.30
7842;DHT22;3966;51.052;13.820;2022-07-18T12:19:02;28.00;56.70
7842;DHT22;3966;51.052;13.820;2022-07-18T12:21:50;27.90;56.70
7842;DHT22;3966;51.052;13.820;2022-07-18T12:32:26;28.00;56.40
7842;DHT22;3966;51.052;13.820;2022-07-18T12:34:59;28.00;56.20
7842;DHT22;3966;51.052;13.820;2022-07-18T12:37:26;28.20;57.00
7842;DHT22;3966;51.052;13.820;2022-07-18T12:40:00;28.40;56.70
7842;DHT22;3966;51.052;13.820;2022-07-18T12:42:31;28.30;55.80
7842;DHT22;3966;51.052;13.820;2022-07-18T12:44:57;28.10;56.00
7842;DHT22;3966;51.052;13.820;2022-07-18T12:47:22;28.00;56.60
7842;DHT22;3966;51.052;13.820;2022-07-18T12:49:48;28.10;57.00
7842;DHT22;3966;51.052;13.820;2022-07-18T12:52:13;28.30;57.10
7842;DHT22;3966;51.052;13.820;2022-07-18T12:54:39;28.50;55.90
7842;DHT22;3966;51.052;13.820;2022-07-18T12:57:04;28.70;55.50
7842;DHT22;3966;51.052;13.820;2022-07-18T12:59:30;28.90;55.60
7842;DHT22;3966;51.052;13.820;2022-07-18T13:01:55;29.00;55.00
7842;DHT22;3966;51.052;13.820;2022-07-18T13:04:21;28.70;54.10
7842;DHT22;3966;51.052;13.820;2022-07-18T13:06:46;29.00;55.30
7842;DHT22;3966;51.052;13.820;2022-07-18T13:09:12;29.30;55.30
7842;DHT22;3966;51.052;13.820;2022-07-18T13:11:37;28.90;55.10
7842;DHT22;3966;51.052;13.820;2022-07-18T13:14:06;29.00;55.50
7842;DHT22;3966;51.052;13.820;2022-07-18T13:16:32;29.10;54.80
7842;DHT22;3966;51.052;13.820;2022-07-18T13:18:57;29.00;54.30
7842;DHT22;3966;51.052;13.820;2022-07-18T13:21:22;29.00;54.50
7842;DHT22;3966;51.052;13.820;2022-07-18T13:23:48;29.30;54.70
7842;DHT22;3966;51.052;13.820;2022-07-18T13:26:13;29.50;53.70
7842;DHT22;3966;51.052;13.820;2022-07-18T13:28:39;29.80;53.50
7842;DHT22;3966;51.052;13.820;2022-07-18T13:31:04;29.60;53.50
7842;DHT22;3966;51.052;13.820;2022-07-18T13:33:30;29.60;53.40
7842;DHT22;3966;51.052;13.820;2022-07-18T13:35:55;29.80;54.10
7842;DHT22;3966;51.052;13.820;2022-07-18T13:38:21;29.60;53.00
7842;DHT22;3966;51.052;13.820;2022-07-18T13:40:46;29.50;53.90
7842;DHT22;3966;51.052;13.820;2022-07-18T13:43:12;29.40;52.90
7842;DHT22;3966;51.052;13.820;2022-07-18T13:45:37;29.10;53.60
7842;DHT22;3966;51.052;13.820;2022-07-18T13:48:04;29.20;53.90
7842;DHT22;3966;51.052;13.820;2022-07-18T13:50:30;29.50;53.90
7842;DHT22;3966;51.052;13.820;2022-07-18T13:52:56;29.50;53.40
7842;DHT22;3966;51.052;13.820;2022-07-18T13:55:22;29.20;53.30
7842;DHT22;3966;51.052;13.820;2022-07-18T13:57:48;29.00;54.00
7842;DHT22;3966;51.052;13.820;2022-07-18T14:00:14;28.80;54.50
7842;DHT22;3966;51.052;13.820;2022-07-18T14:02:39;28.80;54.80
7842;DHT22;3966;51.052;13.820;2022-07-18T14:05:05;28.50;54.50
7842;DHT22;3966;51.052;13.820;2022-07-18T14:07:31;28.50;54.70
7842;DHT22;3966;51.052;13.820;2022-07-18T14:09:57;28.80;54.90
7842;DHT22;3966;51.052;13.820;2022-07-18T14:12:22;28.90;55.60
7842;DHT22;3966;51.052;13.820;2022-07-18T14:14:48;28.80;53.60
7842;DHT22;3966;51.052;13.820;2022-07-18T14:17:13;29.00;53.90
7842;DHT22;3966;51.052;13.820;2022-07-18T14:19:39;28.80;53.40
7842;DHT22;3966;51.052;13.820;2022-07-18T14:22:04;29.00;54.70
7842;DHT22;3966;51.052;13.820;2022-07-18T14:24:30;29.00;55.40
7842;DHT22;3966;51.052;13.820;2022-07-18T14:26:55;28.90;53.80
7842;DHT22;3966;51.052;13.820;2022-07-18T14:29:21;29.00;53.70
7842;DHT22;3966;51.052;13.820;2022-07-18T14:31:46;29.40;54.20
7842;DHT22;3966;51.052;13.820;2022-07-18T14:34:12;29.40;52.30
7842;DHT22;3966;51.052;13.820;2022-07-18T14:36:37;29.70;52.70
7842;DHT22;3966;51.052;13.820;2022-07-18T14:39:03;29.70;53.00
7842;DHT22;3966;51.052;13.820;2022-07-18T14:41:28;29.80;52.50
7842;DHT22;3966;51.052;13.820;2022-07-18T14:43:54;29.30;52.90
7842;DHT22;3966;51.052;13.820;2022-07-18T14:46:19;29.20;54.90
7842;DHT22;3966;51.052;13.820;2022-07-18T14:48:45;29.20;53.60
7842;DHT22;3966;51.052;13.820;2022-07-18T14:51:14;29.50;53.60
7842;DHT22;3966;51.052;13.820;2022-07-18T14:53:39;29.40;52.30
7842;DHT22;3966;51.052;13.820;2022-07-18T14:56:05;29.60;53.60
7842;DHT22;3966;51.052;13.820;2022-07-18T14:58:30;30.00;52.80
7842;DHT22;3966;51.052;13.820;2022-07-18T15:00:56;30.30;52.20
7842;DHT22;3966;51.052;13.820;2022-07-18T15:03:21;30.10;52.70
7842;DHT22;3966;51.052;13.820;2022-07-18T15:05:47;29.40;52.20
7842;DHT22;3966;51.052;13.820;2022-07-18T15:08:12;29.80;52.50
7842;DHT22;3966;51.052;13.820;2022-07-18T15:10:38;30.50;52.40
7842;DHT22;3966;51.052;13.820;2022-07-18T15:13:03;30.50;51.80
7842;DHT22;3966;51.052;13.820;2022-07-18T15:15:29;30.20;51.30
7842;DHT22;3966;51.052;13.820;2022-07-18T15:17:54;30.30;51.60
7842;DHT22;3966;51.052;13.820;2022-07-18T15:20:20;29.90;51.40
7842;DHT22;3966;51.052;13.820;2022-07-18T15:22:45;30.00;52.00
7842;DHT22;3966;51.052;13.820;2022-07-18T15:25:11;29.80;52.50
7842;DHT22;3966;51.052;13.820;2022-07-18T15:27:36;30.00;52.40
7842;DHT22;3966;51.052;13.820;2022-07-18T15:30:03;29.80;52.10
7842;DHT22;3966;51.052;13.820;2022-07-18T15:32:28;29.80;52.30
7842;DHT22;3966;51.052;13.820;2022-07-18T15:34:54;29.80;52.20
7842;DHT22;3966;51.052;13.820;2022-07-18T15:37:19;29.70;52.10
7842;DHT22;3966;51.052;13.820;2022-07-18T15:39:45;30.00;52.20
7842;DHT22;3966;51.052;13.820;2022-07-18T15:42:10;30.40;52.50
7842;DHT22;3966;51.052;13.820;2022-07-18T15:44:36;30.40;51.00
7842;DHT22;3966;51.052;13.820;2022-07-18T15:47:06;30.70;51.50
7842;DHT22;3966;51.052;13.820;2022-07-18T15:49:33;31.00;50.90
7842;DHT22;3966;51.052;13.820;2022-07-18T15:51:59;31.10;49.90
7842;DHT22;3966;51.052;13.820;2022-07-18T15:54:24;31.30;50.40
7842;DHT22;3966;51.052;13.820;2022-07-18T15:56:50;31.40;50.60
7842;DHT22;3966;51.052;13.820;2022-07-18T15:59:15;31.10;50.00
7842;DHT22;3966;51.052;13.820;2022-07-18T16:01:41;31.40;49.50
7842;DHT22;3966;51.052;13.820;2022-07-18T16:04:08;31.50;49.80
7842;DHT22;3966;51.052;13.820;2022-07-18T16:06:33;31.10;49.00
7842;DHT22;3966;51.052;13.820;2022-07-18T16:09:00;30.70;50.40
7842;DHT22;3966;51.052;13.820;2022-07-18T16:11:25;31.20;50.80
7842;DHT22;3966;51.052;13.820;2022-07-18T16:13:51;31.70;49.50
7842;DHT22;3966;51.052;13.820;2022-07-18T16:16:17;31.80;49.10
7842;DHT22;3966;51.052;13.820;2022-07-18T16:18:43;31.80;49.20
7842;DHT22;3966;51.052;13.820;2022-07-18T16:21:09;31.70;49.60
7842;DHT22;3966;51.052;13.820;2022-07-18T16:23:34;31.50;49.20
7842;DHT22;3966;51.052;13.820;2022-07-18T16:26:00;31.60;49.60
7842;DHT22;3966;51.052;13.820;2022-07-18T16:28:26;31.30;49.40
7842;DHT22;3966;51.052;13.820;2022-07-18T16:30:53;31.60;49.30
7842;DHT22;3966;51.052;13.820;2022-07-18T16:33:19;31.70;48.90
7842;DHT22;3966;51.052;13.820;2022-07-18T16:35:44;31.50;48.90